createdAt,value
2022-07-27T00:01:14.018Z,17.50
2022-07-27T00:03:44.117Z,17.40
2022-07-27T00:06:12.309Z,17.30
2022-07-27T00:08:40.401Z,17.10
2022-07-27T00:11:09.927Z,17.00
2022-07-27T00:13:38.357Z,16.90
2022-07-27T00:16:07.477Z,16.80
2022-07-27T00:18:35.547Z,16.70
2022-07-27T00:21:05.192Z,16.70
2022-07-27T00:23:34.121Z,16.60
2022-07-27T00:26:02.202Z,16.60
2022-07-27T00:28:30.312Z,16.60
2022-07-27T00:30:58.398Z,16.60
2022-07-27T00:33:26.398Z,16.50
2022-07-27T00:35:54.493Z,16.50
2022-07-27T00:38:24.021Z,16.50
2022-07-27T00:40:52.148Z,16.40
2022-07-27T00:43:20.401Z,16.30
2022-07-27T00:45:48.505Z,16.30
2022-07-27T00:48:16.883Z,16.20
2022-07-27T00:50:46.169Z,16.10
2022-07-27T00:53:14.275Z,16.10
2022-07-27T00:55:43.949Z,16.10
2022-07-27T00:58:12.171Z,16.10
2022-07-27T01:00:40.831Z,16.10
2022-07-27T01:03:09.826Z,16.00
2022-07-27T01:05:43.366Z,15.90
2022-07-27T01:08:14.729Z,15.80
2022-07-27T01:10:45.307Z,15.70
2022-07-27T01:13:13.876Z,15.60
2022-07-27T01:15:43.703Z,15.50
2022-07-27T01:18:28.094Z,15.50
2022-07-27T01:20:56.507Z,15.50
2022-07-27T01:23:25.971Z,15.40
2022-07-27T01:25:54.282Z,15.40
2022-07-27T01:28:22.518Z,15.30
2022-07-27T01:30:50.684Z,15.30
2022-07-27T01:33:25.735Z,15.20
2022-07-27T01:35:55.880Z,15.20
2022-07-27T01:38:25.666Z,15.20
2022-07-27T01:40:54.695Z,15.20
2022-07-27T01:43:23.315Z,15.20
2022-07-27T01:45:51.716Z,15.30
2022-07-27T01:48:20.832Z,15.30
2022-07-27T01:50:51.002Z,15.30
2022-07-27T01:53:20.129Z,15.30
2022-07-27T01:55:50.369Z,15.30
2022-07-27T01:58:18.844Z,15.30
2022-07-27T02:00:47.114Z,15.30
2022-07-27T02:03:15.191Z,15.30
2022-07-27T02:05:43.532Z,15.30
2022-07-27T02:08:12.127Z,15.30
2022-07-27T02:11:00.899Z,15.30
2022-07-27T02:13:29.425Z,15.30
2022-07-27T02:15:57.882Z,15.30
2022-07-27T02:18:33.153Z,15.30
2022-07-27T02:21:05.907Z,15.30
2022-07-27T02:23:34.684Z,15.30
2022-07-27T02:26:02.886Z,15.30
2022-07-27T02:28:32.327Z,15.20
2022-07-27T02:31:00.971Z,15.30
2022-07-27T02:33:29.296Z,15.20
2022-07-27T02:35:57.381Z,15.30
2022-07-27T02:38:25.928Z,15.30
2022-07-27T02:40:54.217Z,15.30
2022-07-27T02:43:22.303Z,15.30
2022-07-27T02:45:52.805Z,15.30
2022-07-27T02:48:21.038Z,15.30
2022-07-27T02:50:49.147Z,15.30
2022-07-27T02:53:17.289Z,15.30
2022-07-27T02:55:45.329Z,15.30
2022-07-27T02:58:13.513Z,15.40
2022-07-27T03:00:41.486Z,15.40
2022-07-27T03:03:11.078Z,15.40
2022-07-27T03:05:39.432Z,15.50
2022-07-27T03:08:07.532Z,15.50
2022-07-27T03:10:35.538Z,15.60
2022-07-27T03:13:04.034Z,15.60
2022-07-27T03:15:34.028Z,15.60
2022-07-27T03:18:02.155Z,15.60
2022-07-27T03:20:31.636Z,15.60
2022-07-27T03:22:59.707Z,15.60
2022-07-27T03:25:27.850Z,15.60
2022-07-27T03:27:58.260Z,15.60
2022-07-27T03:30:30.197Z,15.60
2022-07-27T03:32:58.496Z,15.60
2022-07-27T03:35:26.641Z,15.60
2022-07-27T03:37:56.385Z,15.60
2022-07-27T03:40:24.417Z,15.70
2022-07-27T03:42:52.573Z,15.70
2022-07-27T03:45:21.061Z,15.70
2022-07-27T03:47:49.114Z,15.80
2022-07-27T03:50:17.205Z,15.80
2022-07-27T03:52:45.456Z,15.90
2022-07-27T03:55:15.311Z,15.90
2022-07-27T03:57:43.464Z,16.00
2022-07-27T04:00:13.105Z,16.00
2022-07-27T04:02:41.577Z,16.00
2022-07-27T04:05:10.590Z,16.00
2022-07-27T04:07:39.480Z,16.00
2022-07-27T04:10:09.108Z,16.00
2022-07-27T04:12:41.404Z,16.00
2022-07-27T04:15:10.667Z,16.00
2022-07-27T04:17:54.637Z,16.00
2022-07-27T04:20:25.965Z,16.10
2022-07-27T04:22:54.174Z,16.10
2022-07-27T04:25:22.610Z,16.10
2022-07-27T04:27:54.745Z,16.20
2022-07-27T04:30:23.617Z,16.20
2022-07-27T04:32:52.081Z,16.20
2022-07-27T04:35:26.069Z,16.30
2022-07-27T04:37:57.793Z,16.30
2022-07-27T04:40:31.798Z,16.30
2022-07-27T04:43:02.305Z,16.40
2022-07-27T04:45:30.695Z,16.40
2022-07-27T04:47:58.871Z,16.50
2022-07-27T04:50:27.090Z,16.50
2022-07-27T04:52:59.454Z,16.60
2022-07-27T04:55:27.564Z,16.60
2022-07-27T04:57:55.697Z,16.70
2022-07-27T05:00:25.231Z,16.70
2022-07-27T05:02:53.388Z,16.70
2022-07-27T05:05:21.598Z,16.80
2022-07-27T05:07:49.674Z,16.90
2022-07-27T05:10:20.604Z,16.90
2022-07-27T05:12:50.109Z,17.00
2022-07-27T05:15:18.797Z,17.10
2022-07-27T05:17:48.601Z,17.10
2022-07-27T05:20:16.858Z,17.10
2022-07-27T05:22:45.468Z,17.20
2022-07-27T05:25:13.678Z,17.30
2022-07-27T05:27:50.956Z,17.40
2022-07-27T05:30:24.306Z,17.50
2022-07-27T05:32:53.851Z,17.60
2022-07-27T05:35:22.299Z,17.70
2022-07-27T05:37:50.343Z,17.80
2022-07-27T05:40:18.506Z,17.80
2022-07-27T05:42:46.628Z,17.90
2022-07-27T05:45:14.847Z,18.00
2022-07-27T05:47:42.964Z,18.10
2022-07-27T05:50:12.852Z,18.10
2022-07-27T05:52:40.914Z,18.20
2022-07-27T05:55:09.912Z,18.20
2022-07-27T05:57:38.747Z,18.30
2022-07-27T06:00:08.321Z,18.30
2022-07-27T06:02:42.891Z,18.40
2022-07-27T06:05:15.903Z,18.50
2022-07-27T06:07:59.741Z,18.60
2022-07-27T06:10:29.015Z,18.60
2022-07-27T06:12:57.774Z,18.60
2022-07-27T06:15:26.552Z,18.70
2022-07-27T06:17:54.718Z,18.80
2022-07-27T06:20:25.000Z,18.90
2022-07-27T06:22:54.853Z,19.00
2022-07-27T06:25:34.264Z,19.10
2022-07-27T06:28:04.507Z,19.20
2022-07-27T06:30:33.090Z,19.30
2022-07-27T06:33:01.395Z,19.40
2022-07-27T06:35:31.087Z,19.50
2022-07-27T06:37:59.175Z,19.70
2022-07-27T06:40:29.761Z,19.80
2022-07-27T06:42:58.371Z,19.90
2022-07-27T06:45:26.668Z,20.10
2022-07-27T06:47:54.815Z,20.20
2022-07-27T06:50:23.546Z,20.30
2022-07-27T06:52:53.110Z,20.40
2022-07-27T06:55:21.167Z,20.60
2022-07-27T06:57:49.318Z,20.70
2022-07-27T07:00:17.668Z,20.70
2022-07-27T07:02:53.688Z,20.80
2022-07-27T07:05:23.045Z,20.90
2022-07-27T07:07:53.168Z,20.90
2022-07-27T07:10:21.755Z,21.00
2022-07-27T07:12:55.554Z,21.10
2022-07-27T07:15:25.056Z,21.20
2022-07-27T07:17:53.391Z,21.30
2022-07-27T07:20:21.499Z,21.40
2022-07-27T07:22:49.947Z,21.60
2022-07-27T07:25:19.488Z,21.70
2022-07-27T07:27:47.752Z,21.80
2022-07-27T07:30:15.945Z,22.00
2022-07-27T07:32:44.497Z,22.00
2022-07-27T07:35:12.974Z,22.00
2022-07-27T07:37:41.247Z,22.00
2022-07-27T07:40:41.580Z,21.90
2022-07-27T07:43:02.523Z,21.90
2022-07-27T07:45:32.598Z,21.90
2022-07-27T07:48:01.090Z,21.90
2022-07-27T07:50:29.285Z,21.90
2022-07-27T07:52:57.577Z,21.90
2022-07-27T07:55:27.779Z,22.00
2022-07-27T07:57:57.106Z,22.00
2022-07-27T08:00:27.175Z,21.90
2022-07-27T08:02:58.294Z,22.00
2022-07-27T08:05:27.608Z,22.20
2022-07-27T08:07:55.824Z,22.30
2022-07-27T08:10:24.453Z,22.30
2022-07-27T08:12:55.199Z,22.30
2022-07-27T08:15:35.060Z,22.40
2022-07-27T08:18:06.923Z,22.40
2022-07-27T08:20:35.749Z,22.60
2022-07-27T08:23:05.048Z,22.70
2022-07-27T08:25:33.392Z,22.90
2022-07-27T08:28:02.691Z,22.90
2022-07-27T08:30:32.999Z,23.00
2022-07-27T08:33:04.192Z,23.10
2022-07-27T08:35:35.296Z,23.10
2022-07-27T08:38:05.972Z,23.20
2022-07-27T08:40:44.113Z,23.30
2022-07-27T08:43:21.761Z,23.50
2022-07-27T08:45:55.237Z,23.70
2022-07-27T08:48:25.258Z,24.00
2022-07-27T08:50:55.000Z,24.10
2022-07-27T08:53:23.713Z,24.30
2022-07-27T08:55:52.124Z,24.40
2022-07-27T08:58:20.635Z,24.40
2022-07-27T09:00:50.061Z,24.50
2022-07-27T09:03:21.155Z,24.60
2022-07-27T09:05:51.514Z,24.70
2022-07-27T09:08:24.403Z,24.90
2022-07-27T09:10:55.587Z,25.00
2022-07-27T09:13:26.738Z,25.10
2022-07-27T09:16:18.692Z,25.20
2022-07-27T09:18:46.162Z,25.20
2022-07-27T09:21:19.706Z,25.30
2022-07-27T09:23:51.904Z,25.60
2022-07-27T09:26:31.907Z,25.80
2022-07-27T09:29:02.828Z,25.90
2022-07-27T09:31:32.184Z,25.80
2022-07-27T09:34:02.611Z,25.70
2022-07-27T09:36:31.973Z,25.60
2022-07-27T09:39:05.573Z,25.70
2022-07-27T09:41:45.927Z,25.80
2022-07-27T09:44:32.186Z,26.00
2022-07-27T09:47:01.779Z,26.20
2022-07-27T09:49:32.113Z,26.30
2022-07-27T09:52:02.620Z,26.30
2022-07-27T09:54:47.263Z,26.10
2022-07-27T09:57:15.786Z,26.10
2022-07-27T09:59:43.773Z,26.00
2022-07-27T10:02:14.280Z,26.00
2022-07-27T10:04:43.203Z,26.00
2022-07-27T10:07:13.627Z,25.90
2022-07-27T10:09:46.946Z,25.80
2022-07-27T10:12:15.126Z,25.70
2022-07-27T10:14:43.874Z,25.60
2022-07-27T10:17:13.634Z,25.60
2022-07-27T10:19:46.846Z,25.50
2022-07-27T10:22:15.159Z,25.50
2022-07-27T10:24:46.739Z,25.50
2022-07-27T10:27:22.181Z,25.50
2022-07-27T10:29:51.726Z,25.60
2022-07-27T10:32:27.242Z,25.70
2022-07-27T10:34:55.452Z,25.70
2022-07-27T10:37:29.043Z,25.60
2022-07-27T10:40:17.625Z,25.70
2022-07-27T10:42:52.037Z,25.70
2022-07-27T10:45:22.640Z,25.80
2022-07-27T10:47:52.844Z,26.00
2022-07-27T10:50:32.577Z,26.10
2022-07-27T10:53:06.781Z,26.30
2022-07-27T10:55:52.563Z,26.60
2022-07-27T10:58:50.384Z,26.70
2022-07-27T11:01:20.092Z,26.80
2022-07-27T11:03:52.777Z,26.80
2022-07-27T11:06:37.538Z,26.60
2022-07-27T11:12:07.400Z,26.70
2022-07-27T11:14:45.348Z,26.90
2022-07-27T11:20:04.081Z,26.90
2022-07-27T11:23:03.184Z,27.10
2022-07-27T11:25:23.395Z,27.20
2022-07-27T11:27:53.503Z,27.40
2022-07-27T11:30:26.450Z,27.50
2022-07-27T11:32:55.266Z,27.70
2022-07-27T11:35:24.090Z,27.90
2022-07-27T11:38:00.517Z,28.10
2022-07-27T11:40:56.124Z,28.10
2022-07-27T11:43:37.139Z,28.20
2022-07-27T11:46:18.066Z,28.20
2022-07-27T11:49:08.430Z,28.40
2022-07-27T11:51:38.698Z,28.30
2022-07-27T11:54:08.298Z,28.20
2022-07-27T11:56:37.949Z,28.20
2022-07-27T11:59:13.430Z,28.30
2022-07-27T12:01:44.274Z,28.40
2022-07-27T12:04:16.179Z,28.40
2022-07-27T12:06:46.655Z,28.40
2022-07-27T12:09:17.851Z,28.40
2022-07-27T12:12:04.710Z,28.40
2022-07-27T12:14:37.083Z,28.40
2022-07-27T12:17:13.623Z,28.40
2022-07-27T12:19:42.479Z,28.30
2022-07-27T12:22:11.293Z,28.20
2022-07-27T12:24:41.282Z,28.20
2022-07-27T12:27:13.965Z,28.40
2022-07-27T12:30:01.835Z,28.60
2022-07-27T12:32:33.238Z,28.90
2022-07-27T12:35:02.296Z,29.20
2022-07-27T12:37:31.869Z,29.10
2022-07-27T12:40:00.401Z,29.10
2022-07-27T12:42:37.828Z,29.10
2022-07-27T12:45:15.707Z,29.00
2022-07-27T12:47:44.255Z,28.80
2022-07-27T12:50:14.508Z,28.70
2022-07-27T12:52:47.246Z,28.80
2022-07-27T12:55:17.684Z,29.10
2022-07-27T12:57:55.725Z,29.20
2022-07-27T13:00:33.516Z,29.30
2022-07-27T13:03:03.535Z,29.30
2022-07-27T13:05:32.667Z,29.40
2022-07-27T13:08:00.994Z,29.30
2022-07-27T13:10:29.598Z,29.10
2022-07-27T13:12:57.751Z,29.00
2022-07-27T13:15:27.696Z,29.00
2022-07-27T13:17:55.969Z,28.90
2022-07-27T13:20:24.409Z,28.90
2022-07-27T13:22:53.050Z,29.00
2022-07-27T13:25:21.143Z,29.00
2022-07-27T13:27:50.304Z,29.00
2022-07-27T13:30:19.420Z,28.90
2022-07-27T13:32:49.019Z,28.70
2022-07-27T13:35:17.536Z,28.50
2022-07-27T13:37:46.331Z,28.30
2022-07-27T13:40:15.830Z,28.30
2022-07-27T13:42:43.951Z,28.30
2022-07-27T13:45:12.736Z,28.20
2022-07-27T13:47:42.492Z,28.20
2022-07-27T13:50:19.288Z,28.10
2022-07-27T13:52:49.372Z,28.10
2022-07-27T13:55:18.255Z,28.20
2022-07-27T13:57:47.289Z,28.40
2022-07-27T14:00:16.653Z,28.50
2022-07-27T14:02:46.028Z,28.60
2022-07-27T14:05:20.071Z,28.50
2022-07-27T14:07:48.660Z,28.40
2022-07-27T14:10:41.728Z,28.50
2022-07-27T14:13:12.131Z,30.00
2022-07-27T14:15:53.784Z,31.60
2022-07-27T14:18:24.151Z,33.70
2022-07-27T14:20:54.146Z,35.40
2022-07-27T14:23:22.445Z,35.90
2022-07-27T14:25:50.538Z,36.70
2022-07-27T14:28:18.851Z,36.70
2022-07-27T14:30:47.648Z,37.50
2022-07-27T14:33:15.975Z,38.00
2022-07-27T14:35:44.288Z,38.50
2022-07-27T14:38:24.813Z,39.10
2022-07-27T14:40:59.607Z,39.10
2022-07-27T14:43:28.413Z,38.90
2022-07-27T14:45:56.890Z,39.60
2022-07-27T14:48:37.143Z,39.30
2022-07-27T14:51:10.590Z,38.70
2022-07-27T14:53:39.961Z,37.90
2022-07-27T14:56:07.993Z,36.70
2022-07-27T14:58:36.041Z,35.40
2022-07-27T15:01:04.626Z,34.20
2022-07-27T15:03:32.935Z,33.10
2022-07-27T15:06:01.037Z,32.30
2022-07-27T15:08:29.145Z,32.20
2022-07-27T15:10:58.759Z,31.40
2022-07-27T15:13:26.828Z,30.80
2022-07-27T15:15:56.215Z,30.30
2022-07-27T15:18:24.478Z,29.70
2022-07-27T15:20:52.636Z,29.30
2022-07-27T15:23:20.782Z,28.80
2022-07-27T15:25:48.979Z,28.90
2022-07-27T15:28:18.451Z,29.20
2022-07-27T15:30:46.685Z,29.40
2022-07-27T15:33:14.757Z,29.70
2022-07-27T15:35:42.961Z,31.30
2022-07-27T15:38:10.993Z,33.40
2022-07-27T15:40:40.120Z,35.30
2022-07-27T15:43:11.418Z,36.50
2022-07-27T15:45:42.324Z,36.60
2022-07-27T15:48:12.614Z,37.30
2022-07-27T15:50:42.338Z,38.60
2022-07-27T15:53:11.951Z,39.70
2022-07-27T15:55:39.992Z,40.70
2022-07-27T15:58:08.869Z,40.20
2022-07-27T16:00:41.249Z,39.00
2022-07-27T16:03:12.836Z,37.50
2022-07-27T16:05:43.872Z,36.30
2022-07-27T16:08:12.199Z,35.20
2022-07-27T16:10:42.085Z,34.40
2022-07-27T16:13:12.741Z,33.60
2022-07-27T16:15:59.486Z,33.10
2022-07-27T16:18:29.328Z,33.50
2022-07-27T16:20:57.545Z,33.80
2022-07-27T16:23:26.109Z,33.90
2022-07-27T16:26:04.429Z,35.00
2022-07-27T16:28:35.501Z,36.50
2022-07-27T16:31:05.043Z,37.50
2022-07-27T16:33:34.631Z,38.50
2022-07-27T16:36:02.877Z,39.20
2022-07-27T16:38:31.143Z,39.40
2022-07-27T16:40:59.239Z,39.70
2022-07-27T16:43:38.738Z,39.50
2022-07-27T16:46:10.242Z,39.60
2022-07-27T16:48:42.989Z,38.60
2022-07-27T16:51:13.381Z,37.50
2022-07-27T16:53:43.502Z,37.70
2022-07-27T16:56:11.755Z,38.10
2022-07-27T16:58:40.355Z,38.50
2022-07-27T17:01:09.413Z,38.70
2022-07-27T17:03:38.948Z,38.70
2022-07-27T17:06:07.482Z,38.00
2022-07-27T17:08:36.463Z,37.90
2022-07-27T17:11:05.381Z,38.00
2022-07-27T17:13:35.258Z,38.30
2022-07-27T17:16:04.399Z,38.40
2022-07-27T17:18:38.901Z,38.30
2022-07-27T17:21:12.650Z,37.70
2022-07-27T17:23:41.450Z,36.80
2022-07-27T17:26:10.666Z,35.50
2022-07-27T17:28:40.339Z,34.40
2022-07-27T17:31:10.524Z,33.30
2022-07-27T17:33:39.640Z,32.30
2022-07-27T17:36:14.971Z,31.70
2022-07-27T17:38:46.549Z,31.10
2022-07-27T17:41:19.179Z,30.70
2022-07-27T17:43:52.664Z,30.30
2022-07-27T17:46:22.043Z,29.90
2022-07-27T17:48:50.395Z,29.50
2022-07-27T17:51:19.897Z,29.10
2022-07-27T17:53:48.203Z,28.80
2022-07-27T17:56:16.274Z,28.40
2022-07-27T17:58:45.628Z,28.10
2022-07-27T18:01:13.807Z,27.80
2022-07-27T18:03:42.079Z,27.60
2022-07-27T18:06:10.109Z,27.30
2022-07-27T18:08:39.520Z,27.10
2022-07-27T18:11:09.867Z,26.80
2022-07-27T18:13:39.841Z,26.60
2022-07-27T18:16:11.783Z,26.40
2022-07-27T18:18:41.369Z,26.10
2022-07-27T18:21:10.689Z,25.90
2022-07-27T18:23:40.917Z,25.60
2022-07-27T18:26:09.903Z,25.40
2022-07-27T18:28:39.960Z,25.10
2022-07-27T18:31:10.261Z,25.00
2022-07-27T18:33:40.363Z,24.80
2022-07-27T18:36:08.986Z,24.70
2022-07-27T18:38:38.282Z,24.50
2022-07-27T18:41:07.812Z,24.40
2022-07-27T18:43:35.962Z,24.20
2022-07-27T18:46:04.525Z,23.90
2022-07-27T18:48:32.727Z,23.70
2022-07-27T18:51:01.012Z,23.60
2022-07-27T18:53:29.139Z,23.40
2022-07-27T18:55:57.328Z,23.20
2022-07-27T18:58:27.789Z,23.10
2022-07-27T19:00:58.243Z,22.90
2022-07-27T19:03:27.888Z,22.70
2022-07-27T19:05:56.311Z,22.60
2022-07-27T19:08:24.686Z,22.40
2022-07-27T19:10:52.959Z,22.30
2022-07-27T19:13:21.455Z,22.20
2022-07-27T19:15:50.839Z,22.00
2022-07-27T19:18:18.984Z,21.90
2022-07-27T19:20:47.412Z,21.80
2022-07-27T19:23:15.586Z,21.70
2022-07-27T19:25:45.221Z,21.50
2022-07-27T19:28:16.569Z,21.40
2022-07-27T19:30:44.981Z,21.30
2022-07-27T19:33:14.776Z,21.20
2022-07-27T19:35:43.033Z,21.20
2022-07-27T19:38:11.933Z,21.10
2022-07-27T19:40:44.999Z,21.00
2022-07-27T19:43:14.748Z,20.90
2022-07-27T19:45:43.389Z,20.80
2022-07-27T19:48:11.946Z,20.60
2022-07-27T19:50:41.485Z,20.60
2022-07-27T19:53:09.805Z,20.50
2022-07-27T19:55:37.877Z,20.40
2022-07-27T19:58:06.365Z,20.40
2022-07-27T20:00:34.443Z,20.30
2022-07-27T20:03:03.237Z,20.40
2022-07-27T20:05:31.923Z,20.30
2022-07-27T20:08:01.374Z,20.30
2022-07-27T20:10:29.577Z,20.20
2022-07-27T20:12:58.200Z,20.20
2022-07-27T20:15:26.393Z,20.10
2022-07-27T20:17:55.776Z,20.00
2022-07-27T20:20:23.917Z,20.00
2022-07-27T20:22:52.066Z,19.90
2022-07-27T20:25:22.816Z,19.80
2022-07-27T20:27:51.251Z,19.80
2022-07-27T20:30:20.273Z,19.70
2022-07-27T20:32:49.635Z,19.60
2022-07-27T20:35:18.220Z,19.60
2022-07-27T20:37:47.361Z,19.50
2022-07-27T20:40:16.322Z,19.50
2022-07-27T20:42:45.827Z,19.50
2022-07-27T20:45:14.865Z,19.60
2022-07-27T20:47:43.455Z,19.50
2022-07-27T20:50:12.965Z,19.50
2022-07-27T20:52:42.054Z,19.50
2022-07-27T20:55:11.280Z,19.50
2022-07-27T20:57:39.387Z,19.50
2022-07-27T21:00:10.359Z,19.40
2022-07-27T21:02:38.492Z,19.30
2022-07-27T21:05:07.885Z,19.30
2022-07-27T21:07:36.020Z,19.20
2022-07-27T21:10:04.993Z,19.20
2022-07-27T21:12:33.006Z,19.10
2022-07-27T21:15:01.136Z,19.10
2022-07-27T21:17:30.664Z,19.00
2022-07-27T21:19:58.671Z,18.90
2022-07-27T21:22:27.108Z,18.90
2022-07-27T21:24:55.235Z,18.80
2022-07-27T21:27:23.915Z,18.80
2022-07-27T21:29:52.738Z,18.70
2022-07-27T21:32:20.915Z,18.70
2022-07-27T21:34:50.363Z,18.60
2022-07-27T21:37:18.567Z,18.50
2022-07-27T21:39:46.915Z,18.40
2022-07-27T21:42:14.990Z,18.40
2022-07-27T21:44:43.104Z,18.30
2022-07-27T21:47:14.099Z,18.30
2022-07-27T21:49:43.029Z,18.20
2022-07-27T21:52:12.495Z,18.20
2022-07-27T21:54:40.770Z,18.20
2022-07-27T21:57:08.887Z,18.10
2022-07-27T21:59:37.064Z,18.10
2022-07-27T22:02:05.129Z,18.00
2022-07-27T22:04:33.441Z,17.90
2022-07-27T22:07:01.690Z,17.90
2022-07-27T22:09:31.082Z,17.90
2022-07-27T22:11:59.159Z,17.80
2022-07-27T22:14:27.293Z,17.80
2022-07-27T22:16:55.429Z,17.80
2022-07-27T22:19:23.914Z,17.70
2022-07-27T22:21:52.299Z,17.70
2022-07-27T22:24:20.292Z,17.70
2022-07-27T22:26:50.225Z,17.60
2022-07-27T22:29:18.281Z,17.60
2022-07-27T22:31:46.374Z,17.60
2022-07-27T22:34:15.004Z,17.50
2022-07-27T22:36:43.477Z,17.50
2022-07-27T22:39:12.872Z,17.40
2022-07-27T22:41:41.482Z,17.40
2022-07-27T22:44:11.902Z,17.30
2022-07-27T22:46:40.371Z,17.30
2022-07-27T22:49:09.418Z,17.20
2022-07-27T22:51:49.453Z,17.10
2022-07-27T22:54:18.837Z,17.10
2022-07-27T22:56:47.211Z,17.00
2022-07-27T22:59:16.698Z,17.00
2022-07-27T23:01:46.967Z,17.00
2022-07-27T23:04:18.498Z,16.90
2022-07-27T23:06:47.493Z,16.90
2022-07-27T23:09:16.142Z,16.90
2022-07-27T23:11:44.309Z,16.90
2022-07-27T23:14:13.186Z,16.80
2022-07-27T23:16:43.464Z,16.80
2022-07-27T23:19:12.189Z,16.80
2022-07-27T23:21:41.896Z,16.80
2022-07-27T23:24:10.910Z,16.80
2022-07-27T23:26:39.459Z,16.70
2022-07-27T23:29:07.687Z,16.70
2022-07-27T23:31:36.014Z,16.70
2022-07-27T23:34:05.611Z,16.70
2022-07-27T23:36:33.638Z,16.70
2022-07-27T23:39:01.679Z,16.70
2022-07-27T23:41:29.747Z,16.70
2022-07-27T23:43:57.797Z,16.70
2022-07-27T23:46:26.155Z,16.70
2022-07-27T23:48:54.443Z,16.70
2022-07-27T23:51:24.097Z,16.70
2022-07-27T23:53:52.222Z,16.70
2022-07-27T23:56:20.250Z,16.70
2022-07-27T23:58:48.403Z,16.80
